sensor_id;sensor_type;location;lat;lon;timestamp;pressure;altitude;pressure_sealevel;temperature;humidity
64343;BME280;50675;53.530;-6.312;2022-11-20T09:57:10;99804.75;;;7.42;72.55
64343;BME280;50675;53.530;-6.312;2022-11-20T10:00:43;99817.22;;;7.48;72.80
64343;BME280;50675;53.530;-6.312;2022-11-20T10:04:29;99810.91;;;7.59;72.42
64343;BME280;50675;53.530;-6.312;2022-11-20T13:34:11;99887.94;;;9.16;72.78
64343;BME280;50675;53.530;-6.312;2022-11-20T13:42:20;99882.09;;;9.24;72.88
64343;BME280;50675;53.530;-6.312;2022-11-20T13:45:08;99906.09;;;9.26;73.22
64343;BME280;50675;53.530;-6.312;2022-11-20T13:47:48;99914.25;;;9.36;72.81
64343;BME280;50675;53.530;-6.312;2022-11-20T13:50:14;99908.97;;;9.19;72.87
64343;BME280;50675;53.530;-6.312;2022-11-20T13:52:57;99912.91;;;9.38;72.73
64343;BME280;50675;53.530;-6.312;2022-11-20T13:55:40;99916.09;;;9.30;72.74
64343;BME280;50675;53.530;-6.312;2022-11-20T14:03:34;99913.06;;;9.27;72.82
64343;BME280;50675;53.530;-6.312;2022-11-20T14:06:10;99924.50;;;9.39;72.66
64343;BME280;50675;53.530;-6.312;2022-11-20T14:08:46;99915.91;;;9.42;72.65
64343;BME280;50675;53.530;-6.312;2022-11-20T14:11:20;99906.72;;;9.38;72.75
64343;BME280;50675;53.530;-6.312;2022-11-20T14:14:13;99912.94;;;9.43;72.68
64343;BME280;50675;53.530;-6.312;2022-11-20T14:16:39;99916.53;;;9.17;72.67
64343;BME280;50675;53.530;-6.312;2022-11-20T14:21:53;99919.88;;;9.34;72.73
64343;BME280;50675;53.530;-6.312;2022-11-20T14:24:20;99923.19;;;9.46;72.69
64343;BME280;50675;53.530;-6.312;2022-11-20T14:26:47;99926.72;;;9.47;72.67
64343;BME280;50675;53.530;-6.312;2022-11-20T14:29:18;99920.25;;;9.48;72.70
64343;BME280;50675;53.530;-6.312;2022-11-20T14:31:45;99938.81;;;9.39;72.50
64343;BME280;50675;53.530;-6.312;2022-11-20T14:34:22;99934.75;;;9.42;72.47
64343;BME280;50675;53.530;-6.312;2022-11-20T14:36:53;99943.13;;;9.40;72.41
64343;BME280;50675;53.530;-6.312;2022-11-20T14:39:42;99946.41;;;9.47;72.52
64343;BME280;50675;53.530;-6.312;2022-11-20T14:42:28;99932.25;;;9.30;72.40
64343;BME280;50675;53.530;-6.312;2022-11-20T14:45:00;99933.31;;;9.29;72.91
64343;BME280;50675;53.530;-6.312;2022-11-20T14:47:29;99943.28;;;9.29;72.38
64343;BME280;50675;53.530;-6.312;2022-11-20T14:49:57;99938.47;;;9.31;72.54
64343;BME280;50675;53.530;-6.312;2022-11-20T14:52:26;99930.63;;;9.29;72.47
64343;BME280;50675;53.530;-6.312;2022-11-20T14:54:54;99933.91;;;9.31;72.48
64343;BME280;50675;53.530;-6.312;2022-11-20T14:57:24;99945.78;;;9.35;72.24
64343;BME280;50675;53.530;-6.312;2022-11-20T14:59:51;99947.38;;;9.31;72.21
64343;BME280;50675;53.530;-6.312;2022-11-20T15:02:17;99943.94;;;9.46;72.12
64343;BME280;50675;53.530;-6.312;2022-11-20T15:04:50;99950.59;;;9.33;72.17
64343;BME280;50675;53.530;-6.312;2022-11-20T15:15:39;99927.38;;;8.95;71.94
64343;BME280;50675;53.530;-6.312;2022-11-20T15:31:31;99924.63;;;8.63;71.65
64343;BME280;50675;53.530;-6.312;2022-11-20T15:39:40;99964.78;;;8.92;71.82
64343;BME280;50675;53.530;-6.312;2022-11-20T17:01:44;100004.22;;;7.32;70.80
64343;BME280;50675;53.530;-6.312;2022-11-20T17:08:50;100041.59;;;7.34;70.62
64343;BME280;50675;53.530;-6.312;2022-11-20T17:12:16;100013.72;;;7.07;70.44
64343;BME280;50675;53.530;-6.312;2022-11-20T17:48:02;100049.56;;;6.60;70.47
64343;BME280;50675;53.530;-6.312;2022-11-20T17:50:54;100037.25;;;6.48;70.09
64343;BME280;50675;53.530;-6.312;2022-11-20T17:57:40;100044.47;;;6.47;70.15
64343;BME280;50675;53.530;-6.312;2022-11-20T18:00:53;100059.31;;;6.50;70.00
64343;BME280;50675;53.530;-6.312;2022-11-20T18:08:05;100061.88;;;6.45;70.19
64343;BME280;50675;53.530;-6.312;2022-11-20T18:11:25;100051.16;;;6.45;69.85
64343;BME280;50675;53.530;-6.312;2022-11-20T18:24:45;100055.09;;;6.54;70.15
64343;BME280;50675;53.530;-6.312;2022-11-20T18:31:50;100057.88;;;6.59;69.99
64343;BME280;50675;53.530;-6.312;2022-11-20T18:34:42;100050.66;;;6.48;69.92
64343;BME280;50675;53.530;-6.312;2022-11-20T18:38:23;100058.59;;;6.54;70.26
64343;BME280;50675;53.530;-6.312;2022-11-20T18:41:48;100040.63;;;6.55;70.24
64343;BME280;50675;53.530;-6.312;2022-11-20T18:44:46;100019.28;;;6.48;70.00
64343;BME280;50675;53.530;-6.312;2022-11-20T18:55:22;100016.81;;;6.58;69.69
